sensor_id;sensor_type;location;lat;lon;timestamp;pressure;altitude;pressure_sealevel;temperature;humidity
57050;BME280;42935;50.966;16.992;2023-04-07T00:03:01;101757.16;;;3.25;84.76
57050;BME280;42935;50.966;16.992;2023-04-07T00:06:33;101735.39;;;3.19;83.93
57050;BME280;42935;50.966;16.992;2023-04-07T00:09:50;101755.41;;;3.32;83.54
57050;BME280;42935;50.966;16.992;2023-04-07T00:13:17;101740.16;;;3.12;84.80
57050;BME280;42935;50.966;16.992;2023-04-07T00:16:44;101746.38;;;3.19;85.90
57050;BME280;42935;50.966;16.992;2023-04-07T00:20:03;101743.90;;;3.01;87.75
57050;BME280;42935;50.966;16.992;2023-04-07T00:23:36;101743.59;;;3.01;89.52
57050;BME280;42935;50.966;16.992;2023-04-07T00:26:52;101739.77;;;3.01;91.02
57050;BME280;42935;50.966;16.992;2023-04-07T00:30:16;101748.33;;;2.95;94.13
57050;BME280;42935;50.966;16.992;2023-04-07T00:33:35;101747.12;;;2.60;98.30
57050;BME280;42935;50.966;16.992;2023-04-07T00:36:54;101732.63;;;2.63;100.00
57050;BME280;42935;50.966;16.992;2023-04-07T00:40:13;101738.90;;;2.82;99.60
57050;BME280;42935;50.966;16.992;2023-04-07T00:43:33;101724.17;;;2.71;100.00
57050;BME280;42935;50.966;16.992;2023-04-07T00:46:54;101730.69;;;2.62;100.00
57050;BME280;42935;50.966;16.992;2023-04-07T00:50:18;101720.45;;;2.42;100.00
57050;BME280;42935;50.966;16.992;2023-04-07T00:53:47;101719.77;;;2.40;100.00
57050;BME280;42935;50.966;16.992;2023-04-07T00:57:06;101704.71;;;2.29;100.00
57050;BME280;42935;50.966;16.992;2023-04-07T01:00:31;101673.32;;;2.09;100.00
57050;BME280;42935;50.966;16.992;2023-04-07T01:04:11;101700.70;;;2.15;100.00
57050;BME280;42935;50.966;16.992;2023-04-07T01:07:40;101714.14;;;2.32;100.00
57050;BME280;42935;50.966;16.992;2023-04-07T01:11:07;101709.16;;;2.17;100.00
57050;BME280;42935;50.966;16.992;2023-04-07T01:14:41;101697.77;;;2.15;100.00
57050;BME280;42935;50.966;16.992;2023-04-07T01:18:19;101702.61;;;2.12;100.00
57050;BME280;42935;50.966;16.992;2023-04-07T01:21:43;101695.60;;;2.12;100.00
57050;BME280;42935;50.966;16.992;2023-04-07T01:32:17;101692.18;;;2.24;100.00
57050;BME280;42935;50.966;16.992;2023-04-07T01:35:47;101643.36;;;2.05;100.00
57050;BME280;42935;50.966;16.992;2023-04-07T01:39:10;101692.22;;;2.26;100.00
57050;BME280;42935;50.966;16.992;2023-04-07T01:42:32;101692.52;;;2.20;100.00
57050;BME280;42935;50.966;16.992;2023-04-07T01:46:00;101688.31;;;2.24;100.00
57050;BME280;42935;50.966;16.992;2023-04-07T01:49:20;101687.36;;;2.19;100.00
57050;BME280;42935;50.966;16.992;2023-04-07T01:52:45;101675.47;;;2.25;100.00
57050;BME280;42935;50.966;16.992;2023-04-07T01:56:10;101669.20;;;2.23;100.00
57050;BME280;42935;50.966;16.992;2023-04-07T01:59:35;101676.68;;;2.22;100.00
57050;BME280;42935;50.966;16.992;2023-04-07T02:03:10;101658.52;;;2.14;100.00
57050;BME280;42935;50.966;16.992;2023-04-07T02:10:48;101665.59;;;2.26;100.00
57050;BME280;42935;50.966;16.992;2023-04-07T02:14:13;101659.06;;;2.21;100.00
57050;BME280;42935;50.966;16.992;2023-04-07T02:17:39;101654.78;;;2.25;100.00
57050;BME280;42935;50.966;16.992;2023-04-07T02:21:03;101667.48;;;2.29;100.00
57050;BME280;42935;50.966;16.992;2023-04-07T02:24:27;101663.03;;;2.11;100.00
57050;BME280;42935;50.966;16.992;2023-04-07T02:27:44;101660.73;;;2.08;100.00
57050;BME280;42935;50.966;16.992;2023-04-07T02:31:03;101646.07;;;2.08;100.00
57050;BME280;42935;50.966;16.992;2023-04-07T02:34:27;101655.87;;;2.11;100.00
57050;BME280;42935;50.966;16.992;2023-04-07T02:37:56;101658.07;;;2.13;100.00
57050;BME280;42935;50.966;16.992;2023-04-07T02:41:24;101657.30;;;2.16;100.00
57050;BME280;42935;50.966;16.992;2023-04-07T02:44:40;101622.87;;;2.01;100.00
57050;BME280;42935;50.966;16.992;2023-04-07T02:48:01;101652.12;;;2.13;100.00
57050;BME280;42935;50.966;16.992;2023-04-07T02:51:31;101655.55;;;2.04;100.00
57050;BME280;42935;50.966;16.992;2023-04-07T02:54:55;101652.86;;;1.99;100.00
57050;BME280;42935;50.966;16.992;2023-04-07T02:58:10;101654.84;;;2.02;100.00
57050;BME280;42935;50.966;16.992;2023-04-07T03:01:33;101647.47;;;1.91;100.00
57050;BME280;42935;50.966;16.992;2023-04-07T03:04:55;101648.45;;;1.92;100.00
57050;BME280;42935;50.966;16.992;2023-04-07T03:08:14;101630.75;;;1.68;100.00
57050;BME280;42935;50.966;16.992;2023-04-07T03:11:34;101629.46;;;1.66;100.00
57050;BME280;42935;50.966;16.992;2023-04-07T03:14:56;101640.20;;;1.73;100.00
57050;BME280;42935;50.966;16.992;2023-04-07T03:18:22;101634.78;;;1.63;100.00
57050;BME280;42935;50.966;16.992;2023-04-07T03:21:41;101648.95;;;1.88;100.00
57050;BME280;42935;50.966;16.992;2023-04-07T03:25:06;101651.10;;;1.87;100.00
57050;BME280;42935;50.966;16.992;2023-04-07T03:28:34;101640.51;;;1.95;100.00
57050;BME280;42935;50.966;16.992;2023-04-07T03:31:58;101644.19;;;1.92;100.00
57050;BME280;42935;50.966;16.992;2023-04-07T03:35:16;101622.86;;;1.74;100.00
57050;BME280;42935;50.966;16.992;2023-04-07T03:38:39;101646.75;;;1.97;100.00
57050;BME280;42935;50.966;16.992;2023-04-07T03:42:03;101635.11;;;1.74;100.00
57050;BME280;42935;50.966;16.992;2023-04-07T03:45:23;101647.98;;;1.70;100.00
57050;BME280;42935;50.966;16.992;2023-04-07T03:48:47;101646.77;;;1.66;100.00
57050;BME280;42935;50.966;16.992;2023-04-07T03:52:04;101646.77;;;1.63;100.00
57050;BME280;42935;50.966;16.992;2023-04-07T03:55:27;101648.13;;;1.68;100.00
57050;BME280;42935;50.966;16.992;2023-04-07T03:58:47;101642.41;;;1.62;100.00
57050;BME280;42935;50.966;16.992;2023-04-07T04:02:16;101656.27;;;1.62;100.00
57050;BME280;42935;50.966;16.992;2023-04-07T04:05:44;101637.36;;;1.60;100.00
57050;BME280;42935;50.966;16.992;2023-04-07T04:09:06;101659.69;;;1.70;100.00
57050;BME280;42935;50.966;16.992;2023-04-07T04:12:26;101654.95;;;1.66;100.00
57050;BME280;42935;50.966;16.992;2023-04-07T04:15:50;101653.17;;;1.59;100.00
57050;BME280;42935;50.966;16.992;2023-04-07T04:19:13;101647.19;;;1.62;100.00
57050;BME280;42935;50.966;16.992;2023-04-07T04:22:35;101642.94;;;1.50;100.00
57050;BME280;42935;50.966;16.992;2023-04-07T04:25:58;101653.02;;;1.51;100.00
57050;BME280;42935;50.966;16.992;2023-04-07T04:29:25;101645.77;;;1.30;100.00
57050;BME280;42935;50.966;16.992;2023-04-07T04:32:56;101652.84;;;1.43;100.00
57050;BME280;42935;50.966;16.992;2023-04-07T04:36:24;101638.92;;;1.34;100.00
57050;BME280;42935;50.966;16.992;2023-04-07T04:39:48;101637.37;;;1.34;100.00
57050;BME280;42935;50.966;16.992;2023-04-07T04:43:09;101650.91;;;1.43;100.00
57050;BME280;42935;50.966;16.992;2023-04-07T04:46:33;101647.53;;;1.54;100.00
57050;BME280;42935;50.966;16.992;2023-04-07T04:50:23;101629.77;;;1.42;100.00
57050;BME280;42935;50.966;16.992;2023-04-07T04:53:43;101630.65;;;1.41;100.00
57050;BME280;42935;50.966;16.992;2023-04-07T04:57:02;101646.73;;;1.55;100.00
57050;BME280;42935;50.966;16.992;2023-04-07T05:00:25;101650.23;;;1.50;100.00
57050;BME280;42935;50.966;16.992;2023-04-07T05:03:49;101655.59;;;1.48;100.00
57050;BME280;42935;50.966;16.992;2023-04-07T05:07:13;101656.51;;;1.47;100.00
57050;BME280;42935;50.966;16.992;2023-04-07T05:10:30;101653.99;;;1.47;100.00
57050;BME280;42935;50.966;16.992;2023-04-07T05:13:53;101635.91;;;1.25;100.00
57050;BME280;42935;50.966;16.992;2023-04-07T05:17:17;101653.05;;;1.45;100.00
57050;BME280;42935;50.966;16.992;2023-04-07T05:20:38;101644.78;;;1.33;100.00
57050;BME280;42935;50.966;16.992;2023-04-07T05:24:00;101646.11;;;1.34;100.00
57050;BME280;42935;50.966;16.992;2023-04-07T05:27:54;101655.84;;;1.47;100.00
57050;BME280;42935;50.966;16.992;2023-04-07T05:31:18;101643.31;;;1.33;100.00
57050;BME280;42935;50.966;16.992;2023-04-07T05:34:39;101655.62;;;1.48;100.00
57050;BME280;42935;50.966;16.992;2023-04-07T05:38:10;101653.91;;;1.48;100.00
57050;BME280;42935;50.966;16.992;2023-04-07T05:41:34;101659.60;;;1.58;100.00
57050;BME280;42935;50.966;16.992;2023-04-07T05:45:03;101657.95;;;1.40;100.00
57050;BME280;42935;50.966;16.992;2023-04-07T05:48:24;101664.08;;;1.46;100.00
57050;BME280;42935;50.966;16.992;2023-04-07T05:51:48;101666.47;;;1.43;100.00
57050;BME280;42935;50.966;16.992;2023-04-07T05:55:09;101668.31;;;1.49;100.00
57050;BME280;42935;50.966;16.992;2023-04-07T05:58:33;101673.01;;;1.50;100.00
57050;BME280;42935;50.966;16.992;2023-04-07T06:02:01;101670.43;;;1.46;100.00
57050;BME280;42935;50.966;16.992;2023-04-07T06:05:21;101655.25;;;1.26;100.00
57050;BME280;42935;50.966;16.992;2023-04-07T06:08:36;101669.72;;;1.43;100.00
57050;BME280;42935;50.966;16.992;2023-04-07T06:11:56;101671.23;;;1.46;100.00
57050;BME280;42935;50.966;16.992;2023-04-07T06:15:17;101670.88;;;1.44;100.00
57050;BME280;42935;50.966;16.992;2023-04-07T06:18:41;101657.36;;;1.31;100.00
57050;BME280;42935;50.966;16.992;2023-04-07T06:22:05;101663.77;;;1.43;100.00
57050;BME280;42935;50.966;16.992;2023-04-07T06:25:33;101664.34;;;1.55;100.00
57050;BME280;42935;50.966;16.992;2023-04-07T06:29:01;101666.36;;;1.61;100.00
57050;BME280;42935;50.966;16.992;2023-04-07T06:32:21;101667.68;;;1.65;100.00
57050;BME280;42935;50.966;16.992;2023-04-07T06:35:52;101665.44;;;1.75;100.00
57050;BME280;42935;50.966;16.992;2023-04-07T06:39:16;101655.64;;;1.66;100.00
57050;BME280;42935;50.966;16.992;2023-04-07T06:42:40;101669.14;;;1.66;100.00
57050;BME280;42935;50.966;16.992;2023-04-07T06:46:00;101665.70;;;1.71;100.00
57050;BME280;42935;50.966;16.992;2023-04-07T06:49:20;101645.21;;;1.54;100.00
57050;BME280;42935;50.966;16.992;2023-04-07T06:52:50;101659.95;;;1.72;100.00
57050;BME280;42935;50.966;16.992;2023-04-07T06:56:10;101650.34;;;1.65;100.00
57050;BME280;42935;50.966;16.992;2023-04-07T06:59:38;101646.34;;;1.65;100.00
57050;BME280;42935;50.966;16.992;2023-04-07T07:02:58;101646.84;;;1.64;100.00
57050;BME280;42935;50.966;16.992;2023-04-07T07:06:19;101659.45;;;1.60;100.00
57050;BME280;42935;50.966;16.992;2023-04-07T07:09:39;101654.65;;;1.67;100.00
57050;BME280;42935;50.966;16.992;2023-04-07T07:12:59;101645.40;;;1.75;100.00
57050;BME280;42935;50.966;16.992;2023-04-07T07:16:19;101639.85;;;1.79;100.00
57050;BME280;42935;50.966;16.992;2023-04-07T07:19:37;101623.39;;;1.74;100.00
57050;BME280;42935;50.966;16.992;2023-04-07T07:22:58;101635.35;;;1.81;100.00
57050;BME280;42935;50.966;16.992;2023-04-07T07:26:26;101638.53;;;1.91;100.00
57050;BME280;42935;50.966;16.992;2023-04-07T07:29:46;101632.02;;;1.91;100.00
57050;BME280;42935;50.966;16.992;2023-04-07T07:33:09;101644.32;;;1.84;100.00
57050;BME280;42935;50.966;16.992;2023-04-07T07:36:29;101649.55;;;1.92;100.00
57050;BME280;42935;50.966;16.992;2023-04-07T07:39:48;101646.64;;;1.89;100.00
57050;BME280;42935;50.966;16.992;2023-04-07T07:43:09;101650.17;;;1.82;100.00
57050;BME280;42935;50.966;16.992;2023-04-07T07:46:37;101667.57;;;1.92;100.00
57050;BME280;42935;50.966;16.992;2023-04-07T07:49:54;101668.63;;;2.01;100.00
57050;BME280;42935;50.966;16.992;2023-04-07T07:53:14;101674.36;;;1.81;100.00
57050;BME280;42935;50.966;16.992;2023-04-07T07:56:35;101678.18;;;1.85;100.00
57050;BME280;42935;50.966;16.992;2023-04-07T07:59:50;101674.21;;;1.85;100.00
57050;BME280;42935;50.966;16.992;2023-04-07T08:03:09;101680.70;;;1.81;100.00
57050;BME280;42935;50.966;16.992;2023-04-07T08:06:33;101670.21;;;1.79;100.00
57050;BME280;42935;50.966;16.992;2023-04-07T08:09:58;101672.93;;;1.95;100.00
57050;BME280;42935;50.966;16.992;2023-04-07T08:13:23;101649.13;;;1.87;100.00
57050;BME280;42935;50.966;16.992;2023-04-07T08:16:43;101671.48;;;2.06;100.00
57050;BME280;42935;50.966;16.992;2023-04-07T08:20:09;101649.81;;;1.89;100.00
57050;BME280;42935;50.966;16.992;2023-04-07T08:23:41;101667.88;;;2.03;100.00
57050;BME280;42935;50.966;16.992;2023-04-07T08:27:05;101657.73;;;2.00;100.00
57050;BME280;42935;50.966;16.992;2023-04-07T08:30:22;101668.93;;;2.04;100.00
57050;BME280;42935;50.966;16.992;2023-04-07T08:33:45;101671.61;;;2.09;100.00
57050;BME280;42935;50.966;16.992;2023-04-07T08:37:02;101671.04;;;2.05;100.00
57050;BME280;42935;50.966;16.992;2023-04-07T08:40:22;101677.88;;;1.97;100.00
57050;BME280;42935;50.966;16.992;2023-04-07T08:43:39;101673.38;;;2.03;100.00
57050;BME280;42935;50.966;16.992;2023-04-07T08:47:06;101675.20;;;2.08;100.00
57050;BME280;42935;50.966;16.992;2023-04-07T08:50:28;101655.62;;;1.95;100.00
57050;BME280;42935;50.966;16.992;2023-04-07T08:53:53;101636.37;;;1.96;100.00
57050;BME280;42935;50.966;16.992;2023-04-07T08:57:13;101673.98;;;2.32;100.00
57050;BME280;42935;50.966;16.992;2023-04-07T09:00:33;101654.60;;;2.37;100.00
57050;BME280;42935;50.966;16.992;2023-04-07T09:03:56;101663.31;;;2.59;100.00
57050;BME280;42935;50.966;16.992;2023-04-07T09:07:16;101630.30;;;2.28;100.00
57050;BME280;42935;50.966;16.992;2023-04-07T09:10:39;101664.44;;;2.49;100.00
57050;BME280;42935;50.966;16.992;2023-04-07T09:13:59;101651.02;;;2.60;100.00
57050;BME280;42935;50.966;16.992;2023-04-07T09:17:18;101661.54;;;2.70;100.00
57050;BME280;42935;50.966;16.992;2023-04-07T09:24:26;101647.23;;;2.70;100.00
57050;BME280;42935;50.966;16.992;2023-04-07T09:31:11;101659.98;;;2.71;100.00
57050;BME280;42935;50.966;16.992;2023-04-07T09:34:38;101667.02;;;2.91;100.00
57050;BME280;42935;50.966;16.992;2023-04-07T09:38:05;101657.44;;;2.84;100.00
57050;BME280;42935;50.966;16.992;2023-04-07T09:41:22;101664.42;;;2.87;100.00
57050;BME280;42935;50.966;16.992;2023-04-07T09:44:45;101661.45;;;2.95;100.00
57050;BME280;42935;50.966;16.992;2023-04-07T09:48:05;101647.73;;;2.99;100.00
57050;BME280;42935;50.966;16.992;2023-04-07T09:51:30;101642.59;;;3.22;100.00
57050;BME280;42935;50.966;16.992;2023-04-07T09:54:52;101647.37;;;3.26;100.00
57050;BME280;42935;50.966;16.992;2023-04-07T09:58:13;101647.48;;;3.16;100.00
57050;BME280;42935;50.966;16.992;2023-04-07T10:01:37;101646.51;;;3.03;100.00
57050;BME280;42935;50.966;16.992;2023-04-07T10:04:54;101656.66;;;3.08;100.00
57050;BME280;42935;50.966;16.992;2023-04-07T10:08:15;101633.90;;;2.99;100.00
57050;BME280;42935;50.966;16.992;2023-04-07T10:11:33;101657.63;;;3.21;100.00
57050;BME280;42935;50.966;16.992;2023-04-07T10:14:59;101638.60;;;3.27;100.00
57050;BME280;42935;50.966;16.992;2023-04-07T10:18:28;101650.98;;;3.34;100.00
57050;BME280;42935;50.966;16.992;2023-04-07T10:21:53;101648.73;;;3.58;100.00
57050;BME280;42935;50.966;16.992;2023-04-07T10:25:23;101652.58;;;3.60;100.00
57050;BME280;42935;50.966;16.992;2023-04-07T10:28:49;101642.55;;;3.25;100.00
57050;BME280;42935;50.966;16.992;2023-04-07T10:32:14;101650.95;;;3.21;100.00
57050;BME280;42935;50.966;16.992;2023-04-07T10:39:18;101638.09;;;2.95;100.00
57050;BME280;42935;50.966;16.992;2023-04-07T10:42:45;101644.04;;;3.04;100.00
57050;BME280;42935;50.966;16.992;2023-04-07T10:46:07;101649.63;;;3.34;100.00
57050;BME280;42935;50.966;16.992;2023-04-07T10:49:31;101647.21;;;3.15;100.00
57050;BME280;42935;50.966;16.992;2023-04-07T10:53:05;101643.23;;;3.29;100.00
57050;BME280;42935;50.966;16.992;2023-04-07T11:07:13;101654.38;;;2.89;100.00
57050;BME280;42935;50.966;16.992;2023-04-07T11:10:39;101665.73;;;2.87;100.00
57050;BME280;42935;50.966;16.992;2023-04-07T11:13:58;101660.80;;;3.02;100.00
57050;BME280;42935;50.966;16.992;2023-04-07T11:17:22;101623.75;;;2.74;100.00
57050;BME280;42935;50.966;16.992;2023-04-07T11:20:47;101657.70;;;3.11;100.00
57050;BME280;42935;50.966;16.992;2023-04-07T11:24:06;101654.81;;;3.17;100.00
57050;BME280;42935;50.966;16.992;2023-04-07T11:27:30;101655.49;;;2.87;100.00
57050;BME280;42935;50.966;16.992;2023-04-07T11:30:53;101659.09;;;3.02;100.00
57050;BME280;42935;50.966;16.992;2023-04-07T11:34:18;101658.16;;;2.96;100.00
57050;BME280;42935;50.966;16.992;2023-04-07T11:37:43;101655.65;;;2.88;100.00
57050;BME280;42935;50.966;16.992;2023-04-07T11:41:10;101632.76;;;2.80;100.00
57050;BME280;42935;50.966;16.992;2023-04-07T11:44:44;101650.65;;;2.80;100.00
57050;BME280;42935;50.966;16.992;2023-04-07T11:48:03;101650.17;;;2.90;100.00
57050;BME280;42935;50.966;16.992;2023-04-07T11:51:22;101641.17;;;2.95;100.00
57050;BME280;42935;50.966;16.992;2023-04-07T11:54:42;101642.79;;;2.82;100.00
57050;BME280;42935;50.966;16.992;2023-04-07T11:58:09;101645.12;;;2.99;100.00
57050;BME280;42935;50.966;16.992;2023-04-07T12:01:40;101651.82;;;2.92;100.00
57050;BME280;42935;50.966;16.992;2023-04-07T12:05:05;101643.51;;;2.95;100.00
57050;BME280;42935;50.966;16.992;2023-04-07T12:11:50;101641.29;;;3.08;100.00
57050;BME280;42935;50.966;16.992;2023-04-07T12:15:10;101625.30;;;3.01;100.00
57050;BME280;42935;50.966;16.992;2023-04-07T12:18:27;101631.59;;;3.17;100.00
57050;BME280;42935;50.966;16.992;2023-04-07T12:21:50;101625.65;;;3.13;100.00
57050;BME280;42935;50.966;16.992;2023-04-07T12:25:07;101635.47;;;3.24;100.00
57050;BME280;42935;50.966;16.992;2023-04-07T12:28:24;101621.70;;;3.22;100.00
57050;BME280;42935;50.966;16.992;2023-04-07T12:31:42;101614.00;;;3.25;100.00
57050;BME280;42935;50.966;16.992;2023-04-07T12:35:04;101630.66;;;3.24;100.00
57050;BME280;42935;50.966;16.992;2023-04-07T12:38:20;101621.47;;;3.16;100.00
57050;BME280;42935;50.966;16.992;2023-04-07T12:41:37;101620.19;;;3.10;100.00
57050;BME280;42935;50.966;16.992;2023-04-07T12:45:01;101605.46;;;3.04;100.00
57050;BME280;42935;50.966;16.992;2023-04-07T12:48:18;101626.77;;;3.16;100.00
57050;BME280;42935;50.966;16.992;2023-04-07T12:51:38;101616.57;;;3.22;100.00
57050;BME280;42935;50.966;16.992;2023-04-07T12:54:56;101614.77;;;3.25;100.00
57050;BME280;42935;50.966;16.992;2023-04-07T12:58:16;101615.42;;;3.27;100.00
57050;BME280;42935;50.966;16.992;2023-04-07T13:01:36;101613.76;;;3.35;100.00
57050;BME280;42935;50.966;16.992;2023-04-07T13:04:52;101623.23;;;3.48;100.00
57050;BME280;42935;50.966;16.992;2023-04-07T13:08:12;101614.63;;;3.47;100.00
57050;BME280;42935;50.966;16.992;2023-04-07T13:11:36;101618.71;;;3.44;100.00
57050;BME280;42935;50.966;16.992;2023-04-07T13:15:00;101606.97;;;3.13;100.00
57050;BME280;42935;50.966;16.992;2023-04-07T13:18:24;101605.48;;;3.12;100.00
57050;BME280;42935;50.966;16.992;2023-04-07T13:21:48;101621.46;;;3.12;100.00
57050;BME280;42935;50.966;16.992;2023-04-07T13:25:13;101622.20;;;3.17;100.00
57050;BME280;42935;50.966;16.992;2023-04-07T13:28:42;101609.98;;;3.10;100.00
57050;BME280;42935;50.966;16.992;2023-04-07T13:32:10;101614.93;;;3.14;100.00
57050;BME280;42935;50.966;16.992;2023-04-07T13:35:38;101611.69;;;3.26;100.00
57050;BME280;42935;50.966;16.992;2023-04-07T13:39:03;101617.73;;;3.39;100.00
57050;BME280;42935;50.966;16.992;2023-04-07T13:42:27;101596.35;;;3.33;100.00
57050;BME280;42935;50.966;16.992;2023-04-07T13:45:48;101617.72;;;3.22;100.00
57050;BME280;42935;50.966;16.992;2023-04-07T13:49:37;101620.70;;;3.24;100.00
57050;BME280;42935;50.966;16.992;2023-04-07T13:53:01;101626.02;;;3.07;100.00
57050;BME280;42935;50.966;16.992;2023-04-07T13:56:17;101620.90;;;3.03;100.00
57050;BME280;42935;50.966;16.992;2023-04-07T13:59:47;101620.63;;;3.11;100.00
57050;BME280;42935;50.966;16.992;2023-04-07T14:03:18;101616.61;;;3.08;100.00
57050;BME280;42935;50.966;16.992;2023-04-07T14:06:48;101607.80;;;3.07;100.00
57050;BME280;42935;50.966;16.992;2023-04-07T14:10:13;101619.62;;;3.24;100.00
57050;BME280;42935;50.966;16.992;2023-04-07T14:13:39;101573.66;;;2.93;100.00
57050;BME280;42935;50.966;16.992;2023-04-07T14:16:59;101620.83;;;3.19;100.00
57050;BME280;42935;50.966;16.992;2023-04-07T14:20:19;101624.04;;;3.15;100.00
57050;BME280;42935;50.966;16.992;2023-04-07T14:23:48;101627.01;;;3.14;100.00
57050;BME280;42935;50.966;16.992;2023-04-07T14:27:12;101623.85;;;3.12;100.00
57050;BME280;42935;50.966;16.992;2023-04-07T14:30:45;101613.95;;;3.05;100.00
57050;BME280;42935;50.966;16.992;2023-04-07T14:34:07;101621.71;;;3.08;100.00
57050;BME280;42935;50.966;16.992;2023-04-07T14:37:29;101611.24;;;2.98;100.00
57050;BME280;42935;50.966;16.992;2023-04-07T14:40:50;101623.63;;;3.01;100.00
57050;BME280;42935;50.966;16.992;2023-04-07T14:44:07;101624.37;;;3.11;100.00
57050;BME280;42935;50.966;16.992;2023-04-07T14:47:27;101622.42;;;3.17;100.00
57050;BME280;42935;50.966;16.992;2023-04-07T14:50:44;101623.09;;;3.15;100.00
57050;BME280;42935;50.966;16.992;2023-04-07T14:54:01;101629.08;;;2.96;100.00
57050;BME280;42935;50.966;16.992;2023-04-07T14:57:17;101631.30;;;2.94;100.00
57050;BME280;42935;50.966;16.992;2023-04-07T15:00:41;101631.41;;;2.94;100.00
57050;BME280;42935;50.966;16.992;2023-04-07T15:04:02;101615.63;;;2.85;100.00
57050;BME280;42935;50.966;16.992;2023-04-07T15:07:26;101635.84;;;2.91;100.00
57050;BME280;42935;50.966;16.992;2023-04-07T15:10:54;101636.32;;;2.94;100.00
57050;BME280;42935;50.966;16.992;2023-04-07T15:14:18;101618.17;;;2.83;100.00
57050;BME280;42935;50.966;16.992;2023-04-07T15:17:39;101643.27;;;2.97;100.00
57050;BME280;42935;50.966;16.992;2023-04-07T15:20:57;101637.17;;;2.92;100.00
57050;BME280;42935;50.966;16.992;2023-04-07T15:24:13;101629.41;;;2.91;100.00
57050;BME280;42935;50.966;16.992;2023-04-07T15:27:34;101638.66;;;2.93;100.00
57050;BME280;42935;50.966;16.992;2023-04-07T15:31:03;101646.02;;;3.00;100.00
57050;BME280;42935;50.966;16.992;2023-04-07T15:34:30;101633.98;;;2.95;100.00
57050;BME280;42935;50.966;16.992;2023-04-07T15:37:52;101622.46;;;2.94;100.00
57050;BME280;42935;50.966;16.992;2023-04-07T15:41:07;101635.74;;;2.92;100.00
57050;BME280;42935;50.966;16.992;2023-04-07T15:44:31;101636.03;;;2.96;100.00
57050;BME280;42935;50.966;16.992;2023-04-07T15:47:57;101646.02;;;3.02;100.00
57050;BME280;42935;50.966;16.992;2023-04-07T15:51:25;101645.95;;;2.97;100.00
57050;BME280;42935;50.966;16.992;2023-04-07T15:54:50;101639.09;;;2.97;100.00
57050;BME280;42935;50.966;16.992;2023-04-07T15:58:14;101594.64;;;2.62;100.00
57050;BME280;42935;50.966;16.992;2023-04-07T16:01:36;101634.47;;;2.92;100.00
57050;BME280;42935;50.966;16.992;2023-04-07T16:04:53;101633.47;;;2.97;100.00
57050;BME280;42935;50.966;16.992;2023-04-07T16:08:21;101638.53;;;3.05;100.00
57050;BME280;42935;50.966;16.992;2023-04-07T16:11:47;101647.93;;;3.10;100.00
57050;BME280;42935;50.966;16.992;2023-04-07T16:15:06;101642.50;;;2.98;100.00
57050;BME280;42935;50.966;16.992;2023-04-07T16:18:33;101643.91;;;2.89;100.00
57050;BME280;42935;50.966;16.992;2023-04-07T16:21:55;101642.78;;;2.85;100.00
57050;BME280;42935;50.966;16.992;2023-04-07T16:25:15;101635.73;;;2.78;100.00
57050;BME280;42935;50.966;16.992;2023-04-07T16:28:37;101636.98;;;2.80;100.00
57050;BME280;42935;50.966;16.992;2023-04-07T16:32:05;101635.62;;;2.77;100.00
57050;BME280;42935;50.966;16.992;2023-04-07T16:35:22;101636.59;;;2.72;100.00
57050;BME280;42935;50.966;16.992;2023-04-07T16:38:42;101617.45;;;2.55;100.00
57050;BME280;42935;50.966;16.992;2023-04-07T16:41:59;101636.12;;;2.62;100.00
57050;BME280;42935;50.966;16.992;2023-04-07T16:45:24;101638.93;;;2.63;100.00
57050;BME280;42935;50.966;16.992;2023-04-07T16:48:40;101637.53;;;2.64;100.00
57050;BME280;42935;50.966;16.992;2023-04-07T16:52:06;101641.05;;;2.62;100.00
57050;BME280;42935;50.966;16.992;2023-04-07T16:55:34;101643.00;;;2.61;100.00
57050;BME280;42935;50.966;16.992;2023-04-07T16:58:54;101641.78;;;2.54;100.00
57050;BME280;42935;50.966;16.992;2023-04-07T17:02:17;101647.40;;;2.53;100.00
57050;BME280;42935;50.966;16.992;2023-04-07T17:05:42;101648.85;;;2.56;100.00
57050;BME280;42935;50.966;16.992;2023-04-07T17:09:06;101649.34;;;2.56;100.00
57050;BME280;42935;50.966;16.992;2023-04-07T17:12:32;101600.21;;;2.22;100.00
57050;BME280;42935;50.966;16.992;2023-04-07T17:15:56;101655.48;;;2.56;100.00
57050;BME280;42935;50.966;16.992;2023-04-07T17:19:16;101656.11;;;2.58;100.00
57050;BME280;42935;50.966;16.992;2023-04-07T17:22:34;101662.40;;;2.58;100.00
57050;BME280;42935;50.966;16.992;2023-04-07T17:25:58;101662.92;;;2.57;100.00
57050;BME280;42935;50.966;16.992;2023-04-07T17:29:19;101661.60;;;2.59;100.00
57050;BME280;42935;50.966;16.992;2023-04-07T17:32:50;101664.75;;;2.59;100.00
57050;BME280;42935;50.966;16.992;2023-04-07T17:36:14;101658.58;;;2.52;100.00
57050;BME280;42935;50.966;16.992;2023-04-07T17:39:39;101669.65;;;2.59;100.00
57050;BME280;42935;50.966;16.992;2023-04-07T17:43:06;101661.08;;;2.56;100.00
57050;BME280;42935;50.966;16.992;2023-04-07T17:46:30;101676.46;;;2.59;100.00
57050;BME280;42935;50.966;16.992;2023-04-07T17:49:54;101614.92;;;2.24;100.00
57050;BME280;42935;50.966;16.992;2023-04-07T17:53:22;101636.48;;;2.37;100.00
57050;BME280;42935;50.966;16.992;2023-04-07T17:57:20;101685.16;;;2.58;100.00
57050;BME280;42935;50.966;16.992;2023-04-07T18:00:41;101679.72;;;2.62;100.00
57050;BME280;42935;50.966;16.992;2023-04-07T18:04:00;101683.55;;;2.61;100.00
57050;BME280;42935;50.966;16.992;2023-04-07T18:07:19;101689.63;;;2.56;100.00